createdAt,value
2019-01-26T00:00:44.394Z,8.80
2019-01-26T00:03:11.685Z,9.67
2019-01-26T00:05:38.923Z,8.50
2019-01-26T00:08:06.254Z,8.93
2019-01-26T00:10:33.507Z,8.87
2019-01-26T00:13:00.778Z,8.93
2019-01-26T00:15:28.102Z,10.40
2019-01-26T00:17:55.363Z,8.70
2019-01-26T00:20:22.631Z,12.20
2019-01-26T00:22:49.911Z,11.93
2019-01-26T00:25:17.181Z,11.17
2019-01-26T00:27:44.431Z,10.60
2019-01-26T00:30:13.381Z,13.37
2019-01-26T00:32:40.618Z,11.13
2019-01-26T00:35:09.768Z,12.30
2019-01-26T00:37:37.040Z,10.93
2019-01-26T00:40:05.866Z,12.03
2019-01-26T00:42:33.138Z,13.37
2019-01-26T00:45:00.406Z,11.37
2019-01-26T00:47:27.705Z,12.40
2019-01-26T00:49:54.954Z,11.93
2019-01-26T00:52:22.240Z,13.90
2019-01-26T00:54:49.526Z,12.73
2019-01-26T00:57:16.799Z,13.37
2019-01-26T00:59:44.082Z,13.53
2019-01-26T01:02:11.338Z,12.90
2019-01-26T01:04:38.679Z,12.73
2019-01-26T01:07:05.966Z,13.03
2019-01-26T01:09:33.212Z,16.07
2019-01-26T01:12:00.499Z,14.37
2019-01-26T01:14:27.775Z,16.13
2019-01-26T01:16:55.061Z,15.40
2019-01-26T01:19:22.342Z,14.77
2019-01-26T01:21:49.714Z,16.20
2019-01-26T01:24:18.764Z,16.07
2019-01-26T01:26:46.027Z,17.63
2019-01-26T01:29:13.298Z,16.07
2019-01-26T01:31:40.569Z,16.13
2019-01-26T01:34:07.838Z,18.43
2019-01-26T01:36:35.110Z,20.33
2019-01-26T01:39:03.926Z,18.93
2019-01-26T01:41:31.270Z,19.23
2019-01-26T01:43:58.506Z,17.30
2019-01-26T01:46:25.800Z,22.03
2019-01-26T01:48:53.045Z,19.10
2019-01-26T01:51:20.378Z,20.17
2019-01-26T01:53:47.645Z,20.70
2019-01-26T01:56:14.995Z,19.57
2019-01-26T01:58:42.278Z,19.67
2019-01-26T02:01:11.114Z,17.83
2019-01-26T02:03:38.385Z,19.83
2019-01-26T02:06:05.668Z,19.27
2019-01-26T02:08:32.942Z,16.53
2019-01-26T02:11:00.227Z,19.20
2019-01-26T02:13:27.478Z,17.83
2019-01-26T02:15:54.756Z,17.57
2019-01-26T02:18:22.014Z,20.70
2019-01-26T02:20:49.281Z,19.63
2019-01-26T02:23:16.573Z,20.87
2019-01-26T02:25:43.833Z,18.63
2019-01-26T02:28:11.130Z,18.60
2019-01-26T02:30:38.431Z,16.77
2019-01-26T02:33:05.724Z,21.07
2019-01-26T02:35:33.034Z,18.57
2019-01-26T02:38:00.331Z,18.10
2019-01-26T02:40:27.602Z,18.70
2019-01-26T02:42:54.894Z,17.87
2019-01-26T02:45:22.153Z,16.97
2019-01-26T02:47:49.459Z,17.87
2019-01-26T02:50:19.654Z,16.63
2019-01-26T02:52:46.927Z,15.00
2019-01-26T02:55:15.721Z,16.93
2019-01-26T02:57:42.977Z,17.57
2019-01-26T03:00:11.779Z,17.00
2019-01-26T03:02:39.026Z,15.63
2019-01-26T03:05:07.846Z,15.93
2019-01-26T03:07:35.099Z,18.97
2019-01-26T03:10:02.378Z,15.23
2019-01-26T03:12:29.635Z,14.37
2019-01-26T03:14:56.920Z,17.10
2019-01-26T03:17:24.206Z,15.90
2019-01-26T03:19:51.468Z,15.60
2019-01-26T03:22:18.766Z,15.33
2019-01-26T03:24:46.042Z,14.50
2019-01-26T03:27:13.302Z,13.87
2019-01-26T03:29:40.562Z,12.60
2019-01-26T03:32:07.820Z,14.07
2019-01-26T03:34:35.093Z,10.57
2019-01-26T03:37:02.346Z,13.00
2019-01-26T03:39:29.646Z,13.93
2019-01-26T03:41:57.082Z,10.50
2019-01-26T03:44:24.349Z,13.27
2019-01-26T03:46:51.631Z,10.50
2019-01-26T03:49:18.881Z,9.87
2019-01-26T03:51:46.127Z,9.63
2019-01-26T03:54:13.402Z,8.10
2019-01-26T03:56:41.430Z,8.93
2019-01-26T03:59:08.718Z,9.40
2019-01-26T04:01:36.053Z,8.33
2019-01-26T04:04:03.367Z,8.10
2019-01-26T04:06:30.638Z,10.23
2019-01-26T04:08:57.974Z,8.10
2019-01-26T04:11:25.257Z,8.77
2019-01-26T04:13:52.508Z,7.23
2019-01-26T04:16:19.855Z,8.23
2019-01-26T04:18:47.142Z,7.63
2019-01-26T04:21:14.414Z,6.70
2019-01-26T04:23:41.679Z,8.07
2019-01-26T04:26:08.938Z,7.73
2019-01-26T04:28:36.226Z,7.43
2019-01-26T04:31:03.581Z,7.00
2019-01-26T04:33:30.844Z,8.17
2019-01-26T04:35:58.127Z,7.43
2019-01-26T04:38:25.375Z,6.23
2019-01-26T04:40:52.663Z,6.97
2019-01-26T04:43:19.910Z,7.83
2019-01-26T04:45:47.207Z,7.87
2019-01-26T04:48:14.452Z,7.53
2019-01-26T04:50:42.536Z,6.60
2019-01-26T04:53:10.789Z,7.80
2019-01-26T04:55:38.042Z,7.90
2019-01-26T04:58:05.390Z,8.13
2019-01-26T05:00:33.358Z,7.70
2019-01-26T05:03:00.623Z,6.77
2019-01-26T05:05:27.859Z,8.40
2019-01-26T05:07:55.142Z,6.50
2019-01-26T05:10:22.481Z,8.40
2019-01-26T05:12:51.272Z,7.17
2019-01-26T05:15:20.084Z,6.70
2019-01-26T05:17:47.425Z,6.97
2019-01-26T05:20:16.556Z,7.50
2019-01-26T05:22:43.825Z,7.87
2019-01-26T05:25:11.164Z,9.10
2019-01-26T05:27:38.434Z,9.53
2019-01-26T05:30:07.243Z,8.03
2019-01-26T05:32:34.543Z,7.90
2019-01-26T05:35:01.788Z,9.27
2019-01-26T05:37:29.064Z,9.73
2019-01-26T05:39:56.315Z,9.57
2019-01-26T05:42:23.567Z,8.17
2019-01-26T05:44:50.845Z,8.10
2019-01-26T05:47:18.124Z,7.27
2019-01-26T05:49:45.406Z,7.97
2019-01-26T05:52:12.647Z,7.67
2019-01-26T05:54:39.936Z,8.70
2019-01-26T05:57:07.185Z,8.57
2019-01-26T05:59:34.472Z,8.97
2019-01-26T06:02:01.739Z,7.10
2019-01-26T06:04:29.059Z,8.47
2019-01-26T06:06:56.317Z,8.33
2019-01-26T06:09:23.617Z,6.83
2019-01-26T06:11:50.899Z,5.97
2019-01-26T06:14:18.156Z,5.73
2019-01-26T06:16:45.496Z,5.63
2019-01-26T06:19:12.739Z,7.23
2019-01-26T06:21:40.068Z,6.03
2019-01-26T06:24:07.310Z,6.50
2019-01-26T06:26:34.614Z,6.60
2019-01-26T06:29:01.870Z,6.13
2019-01-26T06:31:29.123Z,7.40
2019-01-26T06:33:56.400Z,6.53
2019-01-26T06:36:23.686Z,5.87
2019-01-26T06:38:50.970Z,6.87
2019-01-26T06:41:18.238Z,6.03
2019-01-26T06:43:45.567Z,6.00
2019-01-26T06:46:12.811Z,7.23
2019-01-26T06:48:40.145Z,6.93
2019-01-26T06:51:07.400Z,6.87
2019-01-26T06:53:34.697Z,5.60
2019-01-26T06:56:02.032Z,6.50
2019-01-26T06:58:29.312Z,8.40
2019-01-26T07:00:56.559Z,6.57
2019-01-26T07:03:23.848Z,7.53
2019-01-26T07:05:55.694Z,6.00
2019-01-26T07:08:22.959Z,6.60
2019-01-26T07:10:50.199Z,6.33
2019-01-26T07:13:17.471Z,6.40
2019-01-26T07:15:44.806Z,7.10
2019-01-26T07:18:13.630Z,5.67
2019-01-26T07:20:40.888Z,7.03
2019-01-26T07:23:08.145Z,5.70
2019-01-26T07:25:35.406Z,5.53
2019-01-26T07:28:02.655Z,6.00
2019-01-26T07:30:29.976Z,6.07
2019-01-26T07:32:57.263Z,6.13
2019-01-26T07:35:24.519Z,4.53
2019-01-26T07:37:51.802Z,6.17
2019-01-26T07:40:20.584Z,5.20
2019-01-26T07:42:47.870Z,5.80
2019-01-26T07:45:15.119Z,5.63
2019-01-26T07:47:42.447Z,5.47
2019-01-26T07:50:11.259Z,5.67
2019-01-26T07:52:38.542Z,5.03
2019-01-26T07:55:07.354Z,6.07
2019-01-26T07:57:34.610Z,5.30
2019-01-26T08:00:01.862Z,5.37
2019-01-26T08:02:30.764Z,5.63
2019-01-26T08:04:58.059Z,5.93
2019-01-26T08:07:25.322Z,5.23
2019-01-26T08:09:52.595Z,6.40
2019-01-26T08:12:19.887Z,6.13
2019-01-26T08:14:47.158Z,5.23
2019-01-26T08:17:14.487Z,6.23
2019-01-26T08:19:41.739Z,8.43
2019-01-26T08:22:09.074Z,6.67
2019-01-26T08:24:36.351Z,7.77
2019-01-26T08:27:03.602Z,7.97
2019-01-26T08:29:30.845Z,9.50
2019-01-26T08:31:58.139Z,9.50
2019-01-26T08:34:25.438Z,10.53
2019-01-26T08:36:52.682Z,8.07
2019-01-26T08:39:19.934Z,8.20
2019-01-26T08:41:47.203Z,9.77
2019-01-26T08:44:14.457Z,9.93
2019-01-26T08:46:41.747Z,8.93
2019-01-26T08:49:09.003Z,10.37
2019-01-26T08:51:36.266Z,9.63
2019-01-26T08:54:05.075Z,12.30
2019-01-26T08:56:32.432Z,9.77
2019-01-26T08:58:59.721Z,10.30
2019-01-26T09:01:26.954Z,9.30
2019-01-26T09:03:55.891Z,9.67
2019-01-26T09:06:24.798Z,10.10
2019-01-26T09:08:52.051Z,9.33
2019-01-26T09:11:19.315Z,9.57
2019-01-26T09:13:46.602Z,8.87
2019-01-26T09:16:13.873Z,8.80
2019-01-26T09:18:41.161Z,9.17
2019-01-26T09:21:08.519Z,10.30
2019-01-26T09:23:35.786Z,11.33
2019-01-26T09:26:03.133Z,9.20
2019-01-26T09:28:32.047Z,9.17
2019-01-26T09:30:59.300Z,10.70
2019-01-26T09:33:26.572Z,10.53
2019-01-26T09:35:53.847Z,11.23
2019-01-26T09:38:21.130Z,11.07
2019-01-26T09:40:48.409Z,9.57
2019-01-26T09:43:15.714Z,11.50
2019-01-26T09:45:42.972Z,12.83
2019-01-26T09:48:10.238Z,13.40
2019-01-26T09:50:37.506Z,11.50
2019-01-26T09:53:06.293Z,12.93
2019-01-26T09:55:33.571Z,12.37
2019-01-26T09:58:00.823Z,12.60
2019-01-26T10:00:28.354Z,11.77
2019-01-26T10:02:55.691Z,12.17
2019-01-26T10:05:23.031Z,13.03
2019-01-26T10:07:50.299Z,10.20
2019-01-26T10:10:19.134Z,12.63
2019-01-26T10:12:46.496Z,10.97
2019-01-26T10:15:15.735Z,12.53
2019-01-26T10:17:47.910Z,10.07
2019-01-26T10:20:16.775Z,9.73
2019-01-26T10:22:44.030Z,12.87
2019-01-26T10:25:12.810Z,8.77
2019-01-26T10:27:40.080Z,6.90
2019-01-26T10:30:08.887Z,9.73
2019-01-26T10:32:36.184Z,9.33
2019-01-26T10:35:04.987Z,8.70
